Time;durP1;ratioP1;P1;durP2;ratioP2;P2;SDS_P1;SDS_P2;PMS_P1;PMS_P2;Temp;Humidity;BMP_temperature;BMP_pressure;BME280_temperature;BME280_humidity;BME280_pressure;Samples;Min_cycle;Max_cycle;Signal;HPM_P1;HPM_P2
2021/01/16 00:00:39;;;;;;;29.15;13.90;;;;;;;0.72;86.55;103054.41;5037729;28;20192;-76
2021/01/16 00:03:15;;;;;;;22.85;12.95;;;;;;;1.00;85.48;103047.00;5042126;28;20029;-76
2021/01/16 00:05:41;;;;;;;21.23;11.73;;;;;;;1.06;85.19;103048.47;5035998;28;20033;-75
2021/01/16 00:08:07;;;;;;;20.80;11.90;;;;;;;0.97;85.97;103049.19;5043435;28;20032;-75
2021/01/16 00:10:35;;;;;;;20.10;11.70;;;;;;;0.88;86.40;103054.25;5044290;28;20029;-76
2021/01/16 00:13:00;;;;;;;20.33;12.10;;;;;;;0.86;87.00;103063.34;5036239;28;20056;-76
2021/01/16 00:15:27;;;;;;;26.10;13.90;;;;;;;0.98;86.66;103049.38;5032980;28;20499;-76
2021/01/16 00:18:06;;;;;;;21.20;11.77;;;;;;;1.22;85.45;103046.66;5041967;28;20086;-76
2021/01/16 00:20:34;;;;;;;17.13;11.07;;;;;;;1.21;85.19;103049.06;5037452;28;20747;-75
2021/01/16 00:22:59;;;;;;;18.20;11.40;;;;;;;1.14;85.67;103050.09;5040533;28;20029;-77
2021/01/16 00:25:25;;;;;;;20.85;11.57;;;;;;;1.05;85.46;103045.81;5042898;28;20451;-76
2021/01/16 00:27:51;;;;;;;21.35;10.15;;;;;;;1.09;84.59;103051.31;5043289;28;20039;-76
2021/01/16 00:30:19;;;;;;;17.98;9.95;;;;;;;1.21;84.24;103044.88;5043137;28;20027;-76
2021/01/16 00:32:45;;;;;;;15.60;8.67;;;;;;;1.24;83.92;103050.22;5045087;28;20021;-76
2021/01/16 00:35:14;;;;;;;16.35;10.05;;;;;;;1.23;84.10;103037.44;5040215;28;20511;-76
2021/01/16 00:37:41;;;;;;;15.93;9.43;;;;;;;1.22;83.71;103046.66;5035107;28;20079;-76
2021/01/16 00:40:09;;;;;;;16.97;9.53;;;;;;;1.11;84.48;103042.22;5040775;28;20048;-76
2021/01/16 00:42:42;;;;;;;17.60;9.50;;;;;;;1.05;85.26;103050.88;5036283;28;20021;-75
2021/01/16 00:45:09;;;;;;;14.03;9.07;;;;;;;1.01;86.19;103039.56;5036142;28;20016;-76
2021/01/16 00:47:38;;;;;;;16.13;9.87;;;;;;;0.94;86.38;103039.66;5043932;28;20028;-76
2021/01/16 00:50:09;;;;;;;17.10;10.03;;;;;;;0.89;85.24;103030.75;5038034;28;20020;-75
2021/01/16 00:52:38;;;;;;;17.60;10.33;;;;;;;0.96;85.46;103032.22;5040158;28;20025;-76
2021/01/16 00:55:05;;;;;;;15.57;9.37;;;;;;;0.96;86.00;103032.22;5043823;28;20107;-76
2021/01/16 00:57:31;;;;;;;19.77;9.37;;;;;;;0.93;86.21;103022.72;5040047;28;20051;-76
2021/01/16 00:59:56;;;;;;;16.02;9.93;;;;;;;0.93;86.47;103027.78;5041408;28;20017;-75
2021/01/16 01:02:22;;;;;;;18.00;10.43;;;;;;;0.92;86.37;103029.41;5039913;28;20055;-75
2021/01/16 01:04:48;;;;;;;15.23;9.43;;;;;;;0.92;87.15;103023.44;5046296;28;20615;-75
2021/01/16 01:07:13;;;;;;;18.05;9.65;;;;;;;0.88;86.52;103024.78;5038482;28;20108;-76
2021/01/16 01:09:40;;;;;;;15.87;9.40;;;;;;;0.88;86.36;103024.78;5039555;28;20032;-76
2021/01/16 01:12:06;;;;;;;15.60;9.03;;;;;;;0.93;86.38;103025.25;5038934;28;20271;-76
2021/01/16 01:14:32;;;;;;;;;;;;;;;0.95;86.42;103023.75;5046102;28;20083;-76
2021/01/16 01:16:57;;;;;;;15.70;9.53;;;;;;;0.98;85.74;103018.13;5041439;28;19916;-76
2021/01/16 01:19:22;;;;;;;14.35;8.45;;;;;;;1.00;85.29;103017.53;5035550;28;20095;-76
2021/01/16 01:21:48;;;;;;;15.27;8.00;;;;;;;1.11;84.52;103016.91;5040047;28;20021;-76
2021/01/16 01:24:13;;;;;;;12.40;8.30;;;;;;;1.12;84.56;103015.28;5036157;28;20557;-76
2021/01/16 01:26:38;;;;;;;13.07;8.30;;;;;;;1.14;84.33;103009.59;5035148;28;20029;-76
2021/01/16 01:29:04;;;;;;;13.88;8.38;;;;;;;1.19;84.28;103017.63;5039612;28;20025;-76
2021/01/16 01:31:30;;;;;;;13.13;8.18;;;;;;;1.20;84.06;103009.28;5037126;28;20017;-76
2021/01/16 01:33:55;;;;;;;14.63;8.35;;;;;;;1.17;83.69;103006.47;5043752;28;20395;-75
2021/01/16 01:36:21;;;;;;;14.32;8.15;;;;;;;1.21;83.36;102999.31;5040619;28;20112;-75
2021/01/16 01:38:46;;;;;;;14.88;8.02;;;;;;;1.23;83.40;103005.41;5038007;28;20029;-76
2021/01/16 01:41:11;;;;;;;16.10;8.57;;;;;;;1.32;83.31;102997.81;5037064;28;20031;-75
2021/01/16 01:43:37;;;;;;;12.73;8.43;;;;;;;1.33;82.60;102998.72;5038746;28;20692;-75
2021/01/16 01:46:02;;;;;;;13.57;7.93;;;;;;;1.32;83.06;102991.88;5040596;28;20052;-75
2021/01/16 01:48:28;;;;;;;13.63;8.32;;;;;;;1.29;83.11;102992.44;5035598;28;20272;-75
2021/01/16 01:50:54;;;;;;;;;;;;;;;1.41;83.02;102992.72;5035526;28;20086;-74
2021/01/16 01:53:20;;;;;;;12.83;7.30;;;;;;;1.32;83.33;102991.88;5037147;28;19913;-75
2021/01/16 01:55:54;;;;;;;12.40;7.93;;;;;;;1.27;83.46;102996.47;5041494;28;20027;-76
2021/01/16 01:58:23;;;;;;;13.77;8.20;;;;;;;1.24;83.94;102994.53;5040557;28;20024;-76
2021/01/16 02:00:50;;;;;;;17.57;8.13;;;;;;;1.28;84.27;102999.91;5043337;28;20036;-76
2021/01/16 02:03:16;;;;;;;14.93;9.03;;;;;;;1.24;84.43;102999.59;5038836;28;20116;-76
2021/01/16 02:05:42;;;;;;;13.35;8.55;;;;;;;1.23;84.34;102996.94;5038310;28;20120;-77
2021/01/16 02:08:07;;;;;;;15.10;8.45;;;;;;;1.22;84.25;102996.03;5038275;28;20028;-75
2021/01/16 02:10:33;;;;;;;13.70;8.10;;;;;;;1.21;83.91;102995.88;5043584;28;20025;-76
2021/01/16 02:12:59;;;;;;;12.43;8.13;;;;;;;1.33;83.47;103001.25;5042349;28;20071;-76
2021/01/16 02:15:43;;;;;;;14.73;8.13;;;;;;;1.48;82.53;102998.50;5040509;28;20029;-75
2021/01/16 02:18:13;;;;;;;13.77;8.23;;;;;;;1.38;83.00;102997.50;5039408;28;20493;-76
2021/01/16 02:20:42;;;;;;;14.30;8.17;;;;;;;1.39;82.75;102989.16;5038770;28;20029;-76
2021/01/16 02:23:07;;;;;;;13.63;8.20;;;;;;;1.39;82.80;102984.09;5041374;28;20036;-76
2021/01/16 02:25:55;;;;;;;12.73;8.10;;;;;;;1.35;83.31;102982.94;5040183;28;20034;-76
2021/01/16 02:28:24;;;;;;;16.80;9.30;;;;;;;1.35;83.34;102987.09;5034435;28;20040;-76
2021/01/16 02:30:51;;;;;;;15.77;10.17;;;;;;;1.36;83.11;102984.72;5037174;28;20043;-75
2021/01/16 02:33:20;;;;;;;14.33;8.60;;;;;;;1.44;82.13;102967.69;5040427;28;20483;-77
2021/01/16 02:36:04;;;;;;;14.13;8.30;;;;;;;1.41;82.88;102972.47;5039253;28;20029;-76
2021/01/16 02:38:42;;;;;;;16.17;8.90;;;;;;;1.40;82.79;102965.63;5040970;28;20025;-76
2021/01/16 02:41:37;;;;;;;16.27;8.43;;;;;;;1.51;81.53;102962.44;5039053;28;20049;-75
2021/01/16 02:44:33;;;;;;;15.07;8.77;;;;;;;1.45;81.73;102956.81;4994878;28;20041;-75
2021/01/16 02:47:20;;;;;;;16.17;8.53;;;;;;;1.47;80.99;102952.78;5036220;28;20032;-75
2021/01/16 02:49:52;;;;;;;14.32;8.18;;;;;;;1.40;81.58;102956.38;5043926;28;20028;-75
2021/01/16 02:52:20;;;;;;;12.83;8.73;;;;;;;1.38;81.47;102962.06;5038212;28;20056;-75
2021/01/16 02:54:47;;;;;;;15.90;8.83;;;;;;;1.36;81.46;102963.56;5041700;28;20036;-75
2021/01/16 02:57:13;;;;;;;13.13;7.97;;;;;;;1.37;81.99;102952.69;5042171;28;20076;-75
2021/01/16 02:59:41;;;;;;;12.90;7.93;;;;;;;1.41;81.13;102942.97;5040262;28;20090;-76
2021/01/16 03:02:08;;;;;;;13.70;8.40;;;;;;;1.42;81.19;102939.69;5041639;28;20170;-76
2021/01/16 03:04:34;;;;;;;13.70;8.07;;;;;;;1.55;80.92;102936.66;5031386;28;20021;-75
2021/01/16 03:07:00;;;;;;;14.10;8.07;;;;;;;1.49;81.29;102926.84;5036975;28;20029;-75
2021/01/16 03:09:28;;;;;;;14.55;8.20;;;;;;;1.46;80.90;102920.63;5041027;28;20037;-76
2021/01/16 03:11:53;;;;;;;16.40;8.63;;;;;;;1.42;81.15;102923.63;5042822;28;20486;-76
2021/01/16 03:14:20;;;;;;;17.45;9.32;;;;;;;1.41;81.15;102926.91;5041199;28;20020;-75
2021/01/16 03:17:03;;;;;;;14.03;8.60;;;;;;;1.49;80.70;102920.91;5044489;28;20036;-76
2021/01/16 03:19:32;;;;;;;16.13;9.17;;;;;;;1.45;81.07;102919.72;5037652;28;20112;-76
2021/01/16 03:21:57;;;;;;;16.10;10.10;;;;;;;1.38;80.57;102912.31;5036556;28;20029;-75
2021/01/16 03:24:22;;;;;;;20.50;9.60;;;;;;;1.31;81.26;102909.97;5043683;28;20036;-75
2021/01/16 03:26:48;;;;;;;16.50;9.80;;;;;;;1.33;81.49;102912.63;5045804;28;20103;-74
2021/01/16 03:29:13;;;;;;;14.53;8.80;;;;;;;1.34;81.18;102909.34;5045572;28;20310;-76
2021/01/16 03:31:39;;;;;;;18.02;9.00;;;;;;;1.34;81.81;102899.22;5036957;28;20284;-77
2021/01/16 03:34:04;;;;;;;15.50;9.00;;;;;;;1.35;81.05;102899.38;5044356;28;20032;-75
2021/01/16 03:36:29;;;;;;;14.68;8.40;;;;;;;1.29;80.96;102898.75;5038800;28;20176;-75
2021/01/16 03:38:55;;;;;;;16.60;9.05;;;;;;;1.27;80.97;102899.38;5039830;28;20126;-72
2021/01/16 03:41:20;;;;;;;16.17;9.00;;;;;;;1.31;80.57;102898.94;5043232;28;20021;-76
2021/01/16 03:43:45;;;;;;;14.23;8.93;;;;;;;1.32;80.56;102900.72;5040931;28;20052;-75
2021/01/16 03:46:11;;;;;;;15.65;9.48;;;;;;;1.42;79.41;102900.81;5038441;28;20282;-75
2021/01/16 03:48:36;;;;;;;19.20;9.75;;;;;;;1.31;79.97;102907.44;5040460;28;20035;-76
2021/01/16 03:51:02;;;;;;;17.00;9.75;;;;;;;1.24;80.29;102903.41;5039216;28;20514;-76
2021/01/16 03:53:28;;;;;;;16.70;8.93;;;;;;;1.25;80.14;102902.66;5039377;28;20457;-76
2021/01/16 03:55:53;;;;;;;15.38;9.00;;;;;;;1.24;80.68;102903.41;5042772;28;20025;-76
2021/01/16 03:58:18;;;;;;;18.95;9.30;;;;;;;1.33;78.96;102898.34;5043108;28;20020;-74
2021/01/16 04:00:44;;;;;;;18.03;9.03;;;;;;;1.35;80.30;102901.00;5043066;28;20028;-76
2021/01/16 04:03:09;;;;;;;15.00;9.17;;;;;;;1.28;80.47;102902.03;5041331;28;20298;-76
2021/01/16 04:05:34;;;;;;;17.67;9.33;;;;;;;1.28;79.44;102893.56;5040283;28;20634;-75
2021/01/16 04:07:59;;;;;;;16.13;9.40;;;;;;;1.30;79.40;102887.00;5041518;28;20029;-75
2021/01/16 04:10:25;;;;;;;16.50;9.33;;;;;;;1.22;79.49;102882.13;5041361;28;20283;-75
2021/01/16 04:12:50;;;;;;;17.70;9.83;;;;;;;1.28;79.57;102874.19;5044093;28;20072;-76
2021/01/16 04:15:15;;;;;;;15.25;8.80;;;;;;;1.28;78.76;102865.72;5035738;28;20502;-76
2021/01/16 04:17:40;;;;;;;16.80;9.70;;;;;;;1.20;79.38;102865.91;5039601;28;20120;-75
2021/01/16 04:20:06;;;;;;;21.43;10.10;;;;;;;1.20;79.82;102859.94;5038510;28;20022;-75
2021/01/16 04:22:37;;;;;;;16.58;9.13;;;;;;;1.18;80.03;102861.44;5041730;28;20695;-72
2021/01/16 04:25:02;;;;;;;18.30;9.80;;;;;;;1.21;80.37;102861.72;5037931;28;20021;-73
2021/01/16 04:27:28;;;;;;;17.60;10.02;;;;;;;1.18;80.14;102863.97;5035427;28;20479;-75
2021/01/16 04:29:53;;;;;;;19.43;10.00;;;;;;;1.20;79.83;102857.41;5036693;28;20052;-76
2021/01/16 04:32:19;;;;;;;18.98;9.35;;;;;;;1.15;80.11;102858.63;5040828;28;20372;-75
2021/01/16 04:34:44;;;;;;;16.25;10.02;;;;;;;1.19;80.11;102861.59;5040940;28;20022;-75
2021/01/16 04:37:09;;;;;;;18.43;10.47;;;;;;;1.11;80.62;102854.03;5041052;28;20196;-76
2021/01/16 04:39:34;;;;;;;16.97;9.87;;;;;;;1.11;80.45;102849.84;5042380;28;20333;-75
2021/01/16 04:42:02;;;;;;;19.40;10.23;;;;;;;1.11;80.30;102852.38;5038260;28;20021;-75
2021/01/16 04:44:33;;;;;;;19.80;10.50;;;;;;;1.09;80.67;102848.81;5044819;28;20354;-75
2021/01/16 04:47:01;;;;;;;17.73;9.77;;;;;;;1.15;79.95;102845.97;5038796;28;20025;-76
2021/01/16 04:49:27;;;;;;;18.33;10.13;;;;;;;1.14;79.76;102831.53;5038739;28;20021;-73
2021/01/16 04:51:53;;;;;;;21.05;9.77;;;;;;;1.13;80.60;102837.34;5039855;28;20518;-75
2021/01/16 04:54:18;;;;;;;15.13;9.73;;;;;;;1.14;79.76;102832.44;5040664;28;20684;-75
2021/01/16 04:56:48;;;;;;;20.97;9.83;;;;;;;1.16;79.75;102825.88;5037036;28;20059;-76
2021/01/16 04:59:14;;;;;;;19.73;10.23;;;;;;;1.21;79.31;102823.75;5040546;28;20486;-76
2021/01/16 05:01:39;;;;;;;18.50;9.68;;;;;;;1.12;79.79;102826.34;5035592;28;20030;-76
2021/01/16 05:04:07;;;;;;;18.90;8.40;;;;;;;1.13;79.25;102822.16;5037665;28;20029;-76
2021/01/16 05:06:37;;;;;;;16.37;8.60;;;;;;;1.15;78.26;102819.03;5039846;28;20272;-75
2021/01/16 05:09:03;;;;;;;16.27;9.03;;;;;;;1.11;78.82;102819.50;5037294;28;20037;-76
2021/01/16 05:11:41;;;;;;;14.05;8.40;;;;;;;1.04;79.06;102813.72;5041838;28;20716;-75
2021/01/16 05:14:14;;;;;;;14.77;8.60;;;;;;;1.07;78.67;102814.00;5040061;28;20043;-75
2021/01/16 05:16:56;;;;;;;18.30;9.67;;;;;;;1.10;77.54;102812.66;5043670;28;20027;-74
2021/01/16 05:19:31;;;;;;;17.77;9.30;;;;;;;1.11;77.49;102809.38;5034995;28;20052;-73
2021/01/16 05:21:57;;;;;;;16.03;9.23;;;;;;;1.16;77.59;102812.31;5039380;28;20028;-76
2021/01/16 05:24:23;;;;;;;16.08;9.15;;;;;;;1.05;79.23;102811.34;5033881;28;20483;-76
2021/01/16 05:27:03;;;;;;;16.08;8.75;;;;;;;0.99;78.86;102808.22;5039153;28;20029;-75
2021/01/16 05:29:31;;;;;;;20.20;9.93;;;;;;;1.04;78.59;102806.13;5044774;28;20028;-76
2021/01/16 05:31:58;;;;;;;16.00;8.90;;;;;;;1.11;76.83;102804.31;5045095;28;20025;-76
2021/01/16 05:34:25;;;;;;;14.60;8.73;;;;;;;1.11;76.59;102800.88;5039487;28;20032;-76
2021/01/16 05:36:51;;;;;;;15.53;9.37;;;;;;;1.13;76.21;102797.75;5037059;28;20036;-76
2021/01/16 05:39:22;;;;;;;18.73;10.73;;;;;;;1.10;77.14;102796.56;5040320;28;20444;-76
2021/01/16 05:41:47;;;;;;;18.77;9.60;;;;;;;1.09;77.04;102795.69;5039109;28;20494;-75
2021/01/16 05:44:14;;;;;;;16.63;8.95;;;;;;;1.15;75.92;102795.34;5041196;28;20059;-75
2021/01/16 05:46:45;;;;;;;18.23;9.60;;;;;;;1.15;76.21;102791.19;5042192;28;20037;-75
2021/01/16 05:49:18;;;;;;;17.23;9.37;;;;;;;1.11;75.42;102794.19;5039975;28;20549;-76
2021/01/16 05:51:44;;;;;;;20.53;9.03;;;;;;;1.11;75.54;102791.66;5029783;28;20471;-76
2021/01/16 05:54:12;;;;;;;16.27;9.00;;;;;;;1.17;74.89;102779.56;5033561;28;20450;-74
2021/01/16 05:56:38;;;;;;;20.30;9.47;;;;;;;1.10;75.97;102787.34;5034244;28;20030;-74
2021/01/16 05:59:08;;;;;;;16.55;9.48;;;;;;;1.10;74.82;102782.28;5032777;28;20551;-76
2021/01/16 06:01:37;;;;;;;18.73;9.57;;;;;;;1.16;74.91;102777.78;5040322;28;20025;-76
2021/01/16 06:04:03;;;;;;;16.30;9.83;;;;;;;1.11;73.88;102771.41;5043885;28;20502;-75
2021/01/16 06:06:32;;;;;;;18.92;10.13;;;;;;;1.08;73.92;102771.13;5048324;28;20025;-75
2021/01/16 06:08:58;;;;;;;17.53;9.20;;;;;;;1.05;74.71;102773.38;5042893;28;20053;-76
2021/01/16 06:11:23;;;;;;;15.38;9.30;;;;;;;1.04;74.37;102771.59;5034366;28;20032;-75
2021/01/16 06:13:50;;;;;;;17.15;9.27;;;;;;;1.04;73.82;102760.56;5066219;23;20121;-79
2021/01/16 06:16:17;;;;;;;20.10;10.00;;;;;;;1.04;74.35;102756.41;5073094;28;20028;-80
2021/01/16 06:18:54;;;;;;;20.67;10.37;;;;;;;1.02;74.85;102762.97;5078587;28;20105;-78
2021/01/16 06:21:26;;;;;;;19.27;10.17;;;;;;;1.03;74.62;102761.31;5082553;28;20508;-77
2021/01/16 06:23:56;;;;;;;20.83;10.40;;;;;;;0.97;75.63;102759.09;5103889;28;20031;-79
2021/01/16 06:26:22;;;;;;;21.23;10.37;;;;;;;0.94;76.46;102763.88;5100079;28;20504;-79
2021/01/16 06:29:01;;;;;;;21.38;12.10;;;;;;;0.88;75.25;102760.78;5085245;28;20100;-78
2021/01/16 06:31:29;;;;;;;21.87;11.57;;;;;;;0.94;75.60;102758.81;5084549;28;20034;-79
2021/01/16 06:34:05;;;;;;;19.63;11.30;;;;;;;0.88;76.22;102756.59;5096083;28;20024;-78
2021/01/16 06:36:36;;;;;;;21.50;11.93;;;;;;;0.84;76.39;102751.13;5107238;28;20051;-79
2021/01/16 06:39:07;;;;;;;22.03;12.23;;;;;;;0.85;77.45;102757.97;5088050;28;20082;-78
2021/01/16 06:41:34;;;;;;;21.73;12.07;;;;;;;0.89;77.18;102749.91;5086268;28;20059;-79
2021/01/16 06:44:00;;;;;;;21.67;12.30;;;;;;;0.90;77.51;102739.03;5086250;28;20028;-78
2021/01/16 06:46:46;;;;;;;22.58;12.75;;;;;;;0.88;77.26;102738.91;5086001;28;20050;-78
2021/01/16 06:49:29;;;;;;;23.87;12.50;;;;;;;0.89;77.41;102742.31;5077881;28;20025;-79
2021/01/16 06:51:59;;;;;;;25.87;12.80;;;;;;;0.89;77.49;102744.84;5097133;28;20088;-78
2021/01/16 06:54:28;;;;;;;24.33;12.87;;;;;;;0.88;76.62;102738.91;5104412;28;20020;-78
2021/01/16 06:57:10;;;;;;;24.90;13.30;;;;;;;0.86;77.33;102736.97;5085281;28;20025;-79
2021/01/16 06:59:43;;;;;;;27.07;13.30;;;;;;;0.90;77.04;102737.41;5084881;28;20031;-77
2021/01/16 07:02:25;;;;;;;23.53;13.30;;;;;;;0.89;76.95;102744.84;5096786;28;20115;-77
2021/01/16 07:04:56;;;;;;;23.33;13.10;;;;;;;0.87;77.76;102739.66;5073119;28;20016;-78
2021/01/16 07:07:41;;;;;;;24.13;14.30;;;;;;;1.01;77.42;102735.88;5077915;28;20036;-77
2021/01/16 07:10:11;;;;;;;22.77;13.47;;;;;;;1.03;76.89;102736.03;5079378;28;20024;-77
2021/01/16 07:12:40;;;;;;;26.73;15.23;;;;;;;0.99;77.06;102742.44;5091589;28;20493;-77
2021/01/16 07:15:07;;;;;;;31.00;17.93;;;;;;;0.85;78.12;102743.69;5092480;28;20098;-77
2021/01/16 07:17:33;;;;;;;23.83;13.87;;;;;;;0.82;77.06;102739.97;5081583;28;20099;-79
2021/01/16 07:19:59;;;;;;;25.73;14.07;;;;;;;0.83;78.41;102736.69;5074078;28;20032;-79
2021/01/16 07:22:32;;;;;;;24.08;13.55;;;;;;;0.81;77.85;102735.66;5103612;28;20101;-79
2021/01/16 07:25:00;;;;;;;29.33;16.93;;;;;;;0.88;78.32;102738.91;5087069;28;20028;-77
2021/01/16 07:27:26;;;;;;;28.17;15.27;;;;;;;0.80;78.45;102732.25;5087339;28;20123;-76
2021/01/16 07:29:56;;;;;;;29.60;17.00;;;;;;;0.75;79.11;102730.03;5086501;28;20039;-77
2021/01/16 07:32:36;;;;;;;25.60;15.13;;;;;;;0.96;78.59;102723.53;5078062;28;20505;-76
2021/01/16 07:35:02;;;;;;;29.57;14.93;;;;;;;0.88;77.55;102727.88;5085027;28;20024;-77
2021/01/16 07:37:30;;;;;;;26.03;14.73;;;;;;;0.87;78.02;102721.94;5081686;28;20032;-76
2021/01/16 07:39:59;;;;;;;29.27;15.43;;;;;;;0.91;78.26;102713.88;5079708;28;20039;-77
2021/01/16 07:42:27;;;;;;;29.67;16.20;;;;;;;0.90;78.21;102708.69;5092047;28;20470;-75
2021/01/16 07:45:07;;;;;;;26.83;15.40;;;;;;;0.85;78.69;102715.84;5097891;28;20024;-79
2021/01/16 07:47:41;;;;;;;26.03;15.43;;;;;;;0.95;78.06;102702.41;5101534;28;20075;-77
2021/01/16 07:50:19;;;;;;;29.90;16.53;;;;;;;0.88;78.48;102702.59;5089676;28;20038;-78
2021/01/16 07:52:54;;;;;;;32.87;17.03;;;;;;;0.97;78.10;102697.47;5103793;28;20361;-78
2021/01/16 07:55:20;;;;;;;28.77;15.70;;;;;;;0.96;78.34;102690.63;5089151;28;20024;-78
2021/01/16 07:57:49;;;;;;;27.30;15.68;;;;;;;0.96;78.22;102706.72;5088988;28;20074;-77
2021/01/16 08:00:20;;;;;;;28.90;16.20;;;;;;;0.93;79.00;102691.25;5097482;28;20020;-77
2021/01/16 08:03:04;;;;;;;30.20;15.30;;;;;;;0.96;79.10;102694.06;5102168;28;20054;-76
2021/01/16 08:05:38;;;;;;;28.17;16.40;;;;;;;1.02;79.20;102692.13;5100589;28;20114;-77
2021/01/16 08:08:14;;;;;;;32.97;16.47;;;;;;;0.97;79.77;102683.19;5101060;28;20130;-77
2021/01/16 08:10:42;;;;;;;30.23;16.67;;;;;;;0.95;79.98;102684.69;5100030;28;20012;-77
2021/01/16 08:13:11;;;;;;;32.07;17.13;;;;;;;1.02;79.77;102679.47;5089312;28;20031;-78
2021/01/16 08:15:43;;;;;;;30.70;17.07;;;;;;;0.92;79.94;102676.81;5077928;28;20439;-77
2021/01/16 08:18:17;;;;;;;33.43;17.43;;;;;;;0.90;80.75;102670.72;5080485;28;20031;-78
2021/01/16 08:20:46;;;;;;;35.77;17.30;;;;;;;0.98;80.25;102669.81;5079729;28;20044;-77
2021/01/16 08:23:20;;;;;;;29.67;16.73;;;;;;;1.06;79.22;102663.81;5076781;28;20107;-78
2021/01/16 08:25:46;;;;;;;32.57;16.47;;;;;;;1.05;79.56;102667.09;5079957;28;20032;-79
2021/01/16 08:28:20;;;;;;;31.65;16.85;;;;;;;1.00;80.07;102658.19;5093678;28;20396;-78
2021/01/16 08:30:46;;;;;;;29.17;16.53;;;;;;;1.03;79.00;102657.56;5102560;28;20048;-78
2021/01/16 08:33:12;;;;;;;32.88;16.73;;;;;;;1.02;79.34;102658.31;5080556;28;20044;-77
2021/01/16 08:35:38;;;;;;;28.00;15.17;;;;;;;1.06;78.13;102645.19;5089268;28;20036;-78
2021/01/16 08:38:18;;;;;;;29.17;16.70;;;;;;;1.07;77.87;102650.41;5092058;28;20535;-77
2021/01/16 08:41:03;;;;;;;28.77;15.60;;;;;;;1.08;78.18;102643.69;5072679;28;20086;-76
2021/01/16 08:43:51;;;;;;;30.33;15.60;;;;;;;1.10;77.17;102642.19;5078728;28;20074;-77
2021/01/16 08:46:32;;;;;;;32.70;15.33;;;;;;;1.13;77.18;102640.81;5082874;28;20028;-77
2021/01/16 08:49:00;;;;;;;25.07;15.60;;;;;;;1.08;76.97;102631.94;5079338;28;20421;-77
2021/01/16 08:51:32;;;;;;;29.90;15.53;;;;;;;1.18;76.36;102626.03;5071770;28;20024;-77
2021/01/16 08:54:17;;;;;;;28.67;15.23;;;;;;;1.27;75.35;102623.44;5084243;28;20016;-77
2021/01/16 08:56:45;;;;;;;28.53;15.90;;;;;;;1.23;76.64;102620.63;5090459;28;20383;-79
2021/01/16 08:59:21;;;;;;;25.27;15.17;;;;;;;1.32;75.45;102612.09;5098194;28;20072;-77
2021/01/16 09:01:48;;;;;;;27.23;15.20;;;;;;;1.21;75.97;102617.06;5069461;28;20035;-77
2021/01/16 09:04:21;;;;;;;29.87;15.93;;;;;;;1.22;76.62;102612.91;5070506;28;20021;-77
2021/01/16 09:06:52;;;;;;;27.47;15.00;;;;;;;1.25;75.01;102616.59;5073090;28;20421;-76
2021/01/16 09:09:27;;;;;;;28.27;15.43;;;;;;;1.29;75.43;102606.75;5075816;28;20032;-77
2021/01/16 09:12:05;;;;;;;26.07;14.47;;;;;;;1.24;74.82;102607.22;5078075;28;20115;-77
2021/01/16 09:14:30;;;;;;;29.83;15.23;;;;;;;1.31;75.03;102610.31;5070065;28;20035;-77
2021/01/16 09:16:57;;;;;;;30.77;16.35;;;;;;;1.28;75.48;102610.91;5070306;28;20028;-77
2021/01/16 09:19:28;;;;;;;32.53;16.90;;;;;;;1.18;75.98;102615.91;5071656;28;20128;-77
2021/01/16 09:22:17;;;;;;;25.23;15.00;;;;;;;1.25;75.63;102603.94;5071601;28;20024;-76
2021/01/16 09:24:42;;;;;;;28.47;15.33;;;;;;;1.25;75.81;102601.41;5071647;28;20512;-77
2021/01/16 09:27:24;;;;;;;27.65;15.57;;;;;;;1.25;75.34;102591.28;5087354;28;20027;-76
2021/01/16 09:29:49;;;;;;;29.23;14.77;;;;;;;1.31;74.70;102595.13;5087345;28;20389;-76
2021/01/16 09:32:44;;;;;;;26.83;14.65;;;;;;;1.28;74.62;102604.97;5071150;28;20028;-76
2021/01/16 09:35:09;;;;;;;25.33;15.10;;;;;;;1.30;75.28;102594.25;5063814;28;20061;-77
2021/01/16 09:37:35;;;;;;;27.00;13.52;;;;;;;1.32;75.06;102596.91;5087777;28;20133;-76
2021/01/16 09:40:09;;;;;;;;;;;;;;;1.41;74.98;102588.47;5071555;28;20024;-77
2021/01/16 09:42:49;;;;;;;26.13;14.13;;;;;;;1.43;75.33;102588.63;5085292;28;19923;-76
2021/01/16 09:45:16;;;;;;;23.43;13.67;;;;;;;1.44;75.76;102592.91;5091192;28;20496;-77
2021/01/16 09:47:50;;;;;;;24.33;12.87;;;;;;;1.42;74.93;102590.25;5089744;28;20477;-76
2021/01/16 09:50:17;;;;;;;22.73;12.53;;;;;;;1.38;74.50;102585.69;5077025;28;20025;-77
2021/01/16 09:52:48;;;;;;;22.67;12.40;;;;;;;1.45;74.79;102603.19;5069716;28;20062;-76
2021/01/16 09:55:21;;;;;;;26.03;13.43;;;;;;;1.38;75.06;102605.94;5070916;28;20111;-77
2021/01/16 09:57:47;;;;;;;27.07;13.67;;;;;;;1.40;73.85;102593.41;5070651;28;20024;-76
2021/01/16 10:00:26;;;;;;;25.95;12.32;;;;;;;1.41;74.43;102602.78;5069564;28;20055;-77
2021/01/16 10:03:05;;;;;;;22.90;12.93;;;;;;;1.45;74.55;102599.75;5070507;28;20031;-76
2021/01/16 10:05:36;;;;;;;29.17;12.67;;;;;;;1.47;74.72;102595.72;5089302;28;20044;-76
2021/01/16 10:08:03;;;;;;;25.13;11.80;;;;;;;1.47;74.59;102595.72;5090849;28;20032;-77
2021/01/16 10:10:45;;;;;;;23.13;11.80;;;;;;;1.44;74.89;102585.31;5090323;28;20043;-76
2021/01/16 10:13:12;;;;;;;21.97;10.67;;;;;;;1.56;73.98;102592.34;5089770;28;20016;-77
2021/01/16 10:15:48;;;;;;;22.13;12.83;;;;;;;1.48;74.38;102580.66;5090631;28;20081;-76
2021/01/16 10:18:18;;;;;;;23.02;12.35;;;;;;;1.53;74.40;102568.41;5080091;28;20021;-76
2021/01/16 10:20:43;;;;;;;22.60;12.07;;;;;;;1.55;73.68;102572.84;5070779;28;20024;-76
2021/01/16 10:23:08;;;;;;;23.17;12.15;;;;;;;1.55;74.41;102566.88;5087520;28;20043;-77
2021/01/16 10:25:40;;;;;;;22.13;12.52;;;;;;;1.55;74.60;102562.72;5090706;28;20020;-75
2021/01/16 10:28:07;;;;;;;21.10;10.90;;;;;;;1.53;73.62;102558.28;5076082;28;20505;-77
2021/01/16 10:30:33;;;;;;;18.17;11.30;;;;;;;1.54;73.64;102557.50;5070655;28;20037;-76
2021/01/16 10:32:59;;;;;;;;;;;;;;;1.63;74.57;102552.38;5069504;28;20090;-76
2021/01/16 10:35:27;;;;;;;20.80;11.03;;;;;;;1.64;73.43;102542.38;5070620;28;19954;-77
2021/01/16 10:37:55;;;;;;;19.53;11.03;;;;;;;1.63;73.30;102547.31;5069106;28;20059;-76
2021/01/16 10:40:23;;;;;;;19.50;10.53;;;;;;;1.68;73.02;102543.53;5070310;28;20029;-76
2021/01/16 10:42:50;;;;;;;18.07;10.93;;;;;;;1.66;73.63;102530.72;5085701;28;20119;-76
2021/01/16 10:45:18;;;;;;;18.47;10.20;;;;;;;1.73;73.26;102527.97;5090660;28;20035;-76
2021/01/16 10:47:44;;;;;;;17.77;9.17;;;;;;;1.69;71.99;102525.03;5089043;28;20035;-76
2021/01/16 10:50:24;;;;;;;17.20;9.00;;;;;;;1.70;72.04;102514.16;5090611;28;20031;-76
2021/01/16 10:53:06;;;;;;;16.63;9.10;;;;;;;1.65;71.58;102511.22;5090377;28;20066;-76
2021/01/16 10:55:50;;;;;;;14.43;8.33;;;;;;;1.59;72.36;102513.19;5089405;28;20024;-77
2021/01/16 10:58:26;;;;;;;18.57;8.87;;;;;;;1.69;72.77;102510.72;5076476;28;20027;-76
2021/01/16 11:00:56;;;;;;;13.32;7.03;;;;;;;1.63;72.48;102496.66;5090503;28;20711;-76
2021/01/16 11:03:26;;;;;;;15.50;8.60;;;;;;;1.69;72.79;102497.19;5089082;28;20017;-77
2021/01/16 11:05:54;;;;;;;14.67;8.20;;;;;;;1.60;72.22;102483.69;5070358;28;20463;-76
2021/01/16 11:08:28;;;;;;;14.70;8.60;;;;;;;1.66;71.45;102484.25;5069983;28;20044;-76
2021/01/16 11:10:53;;;;;;;12.33;7.40;;;;;;;1.59;73.11;102482.81;5092155;28;20031;-76
2021/01/16 11:13:28;;;;;;;17.42;8.77;;;;;;;1.58;71.89;102481.03;5093813;28;20024;-76
2021/01/16 11:16:13;;;;;;;11.73;6.83;;;;;;;1.66;70.98;102464.88;5092908;28;20430;-77
2021/01/16 11:18:41;;;;;;;14.03;6.70;;;;;;;1.62;70.61;102460.28;5094012;28;20081;-77
2021/01/16 11:21:08;;;;;;;14.17;7.90;;;;;;;1.56;71.50;102447.09;5073871;28;20103;-77
2021/01/16 11:23:57;;;;;;;13.30;7.47;;;;;;;1.54;70.86;102454.56;5073389;28;20470;-76
2021/01/16 11:26:24;;;;;;;13.80;6.47;;;;;;;1.59;70.80;102444.81;5067720;28;20119;-76
2021/01/16 11:28:54;;;;;;;10.87;5.07;;;;;;;1.61;70.18;102434.81;5084927;28;20095;-76
2021/01/16 11:31:31;;;;;;;14.97;7.17;;;;;;;1.62;68.71;102424.81;5078004;28;20025;-76
2021/01/16 11:34:09;;;;;;;11.13;6.30;;;;;;;1.61;70.79;102425.56;5072224;28;20063;-76